Time;durP1;ratioP1;P1;durP2;ratioP2;P2;SDS_P1;SDS_P2;PMS_P1;PMS_P2;Temp;Humidity;BMP_temperature;BMP_pressure;BME280_temperature;BME280_humidity;BME280_pressure;Samples;Min_cycle;Max_cycle;Signal;HPM_P1;HPM_P2
2023/01/02 00:02:16;;;;;;;5.57;2.70;;;;;;;;;;5011567;28;20733;-85
2023/01/02 00:04:43;;;;;;;4.10;2.27;;;;;;;;;;5011965;28;20230;-85
2023/01/02 00:07:10;;;;;;;4.23;2.10;;;;;;;;;;5023559;28;20234;-85
2023/01/02 00:09:37;;;;;;;2.90;2.23;;;;;;;;;;5031803;28;20211;-85
2023/01/02 00:12:04;;;;;;;6.47;2.57;;;;;;;;;;5031604;28;20710;-86
2023/01/02 00:14:31;;;;;;;5.37;2.30;;;;;;;;;;5031543;28;20234;-85
2023/01/02 00:16:58;;;;;;;5.97;2.17;;;;;;;;;;5021599;28;20624;-85
2023/01/02 00:19:26;;;;;;;3.20;2.23;;;;;;;;;;5011950;28;20215;-85
2023/01/02 00:21:53;;;;;;;2.97;2.00;;;;;;;;;;5011514;28;20239;-85
2023/01/02 00:24:21;;;;;;;5.87;2.20;;;;;;;;;;5012253;28;20231;-85
2023/01/02 00:26:48;;;;;;;3.03;2.10;;;;;;;;;;5029921;28;20648;-85
2023/01/02 00:29:15;;;;;;;3.43;2.10;;;;;;;;;;5031550;28;20206;-85
2023/01/02 00:31:42;;;;;;;4.60;2.30;;;;;;;;;;5031154;28;20238;-85
2023/01/02 00:34:09;;;;;;;4.87;2.20;;;;;;;;;;5021876;28;20255;-85
2023/01/02 00:36:37;;;;;;;3.30;1.80;;;;;;;;;;5011414;28;20624;-85
2023/01/02 00:39:04;;;;;;;2.30;2.10;;;;;;;;;;5011926;28;20211;-85
2023/01/02 00:41:31;;;;;;;4.20;2.30;;;;;;;;;;5011505;28;20248;-85
2023/01/02 00:43:58;;;;;;;3.97;2.37;;;;;;;;;;5011354;28;20707;-85
2023/01/02 00:46:25;;;;;;;2.93;2.30;;;;;;;;;;5010982;28;20722;-85
2023/01/02 00:48:52;;;;;;;3.90;2.07;;;;;;;;;;5011595;28;20218;-86
2023/01/02 00:51:19;;;;;;;3.53;2.40;;;;;;;;;;5010969;28;20274;-86
2023/01/02 00:53:48;;;;;;;4.90;2.30;;;;;;;;;;5017746;28;20219;-85
2023/01/02 00:56:15;;;;;;;3.27;2.00;;;;;;;;;;5030763;28;20241;-85
2023/01/02 00:58:42;;;;;;;4.63;2.30;;;;;;;;;;5031085;28;20207;-86
2023/01/02 01:01:09;;;;;;;3.97;2.23;;;;;;;;;;5030910;28;20304;-85
2023/01/02 01:03:36;;;;;;;4.17;2.10;;;;;;;;;;5029601;28;20590;-85
2023/01/02 01:06:07;;;;;;;2.33;2.03;;;;;;;;;;5034421;28;20227;-85
2023/01/02 01:08:35;;;;;;;3.57;2.20;;;;;;;;;;5034734;28;20253;-85
2023/01/02 01:11:06;;;;;;;3.77;2.17;;;;;;;;;;5034302;28;20266;-85
2023/01/02 01:13:33;;;;;;;5.20;2.17;;;;;;;;;;5032689;28;20598;-85
2023/01/02 01:16:04;;;;;;;3.07;2.10;;;;;;;;;;5025948;28;20230;-85
2023/01/02 01:18:31;;;;;;;5.93;2.47;;;;;;;;;;5033510;28;20261;-85
2023/01/02 01:20:58;;;;;;;3.50;2.07;;;;;;;;;;5033844;28;20234;-85
2023/01/02 01:23:25;;;;;;;3.93;2.40;;;;;;;;;;5034058;28;20222;-85
2023/01/02 01:25:52;;;;;;;2.60;2.13;;;;;;;;;;5033707;28;20238;-85
2023/01/02 01:28:20;;;;;;;3.40;2.43;;;;;;;;;;5033739;28;20206;-85
2023/01/02 01:30:47;;;;;;;9.97;2.87;;;;;;;;;;5034089;28;20405;-85
2023/01/02 01:33:14;;;;;;;5.90;2.20;;;;;;;;;;5034169;28;20257;-85
2023/01/02 01:35:41;;;;;;;4.90;3.10;;;;;;;;;;5033890;28;20246;-85
2023/01/02 01:38:08;;;;;;;3.03;2.40;;;;;;;;;;5034183;28;20210;-85
2023/01/02 01:40:38;;;;;;;3.03;2.40;;;;;;;;;;5033650;28;20698;-85
2023/01/02 01:43:06;;;;;;;3.50;2.37;;;;;;;;;;5034310;28;20227;-85
2023/01/02 01:45:35;;;;;;;4.30;2.80;;;;;;;;;;5026575;28;20235;-85
2023/01/02 01:48:02;;;;;;;4.20;1.90;;;;;;;;;;5014216;28;20208;-85
2023/01/02 01:50:31;;;;;;;6.47;2.20;;;;;;;;;;5013102;28;20223;-86
2023/01/02 01:53:00;;;;;;;7.80;2.93;;;;;;;;;;5014459;28;20231;-85
2023/01/02 01:55:29;;;;;;;6.00;2.30;;;;;;;;;;5013400;28;20658;-85
2023/01/02 01:57:57;;;;;;;3.50;2.10;;;;;;;;;;5014181;28;20613;-85
2023/01/02 02:00:24;;;;;;;2.80;2.10;;;;;;;;;;5013528;28;20242;-85
2023/01/02 02:02:54;;;;;;;4.30;2.53;;;;;;;;;;5014096;28;20635;-85
2023/01/02 02:05:24;;;;;;;5.27;2.77;;;;;;;;;;5027461;28;20635;-85
2023/01/02 02:07:54;;;;;;;3.40;2.37;;;;;;;;;;5029964;28;20203;-85
2023/01/02 02:10:21;;;;;;;2.47;2.20;;;;;;;;;;5033047;28;20222;-85
2023/01/02 02:12:48;;;;;;;4.50;1.97;;;;;;;;;;5033470;28;20222;-85
2023/01/02 02:15:17;;;;;;;4.37;2.47;;;;;;;;;;5032131;28;20227;-85
2023/01/02 02:17:46;;;;;;;7.03;2.27;;;;;;;;;;5033248;28;20784;-85
2023/01/02 02:20:22;;;;;;;7.27;2.87;;;;;;;;;;5032620;28;20298;-85
2023/01/02 02:23:04;;;;;;;4.67;2.20;;;;;;;;;;5022380;28;20293;-85
2023/01/02 02:25:59;;;;;;;3.63;2.10;;;;;;;;;;5013030;28;20242;-85
2023/01/02 02:28:52;;;;;;;2.53;2.07;;;;;;;;;;4989158;28;20211;-85
2023/01/02 02:31:26;;;;;;;4.47;2.17;;;;;;;;;;5013180;28;20619;-85
2023/01/02 02:33:56;;;;;;;4.47;2.50;;;;;;;;;;5013409;28;20242;-85
2023/01/02 02:36:27;;;;;;;5.40;2.10;;;;;;;;;;5012594;28;20246;-85
2023/01/02 02:38:58;;;;;;;4.33;2.37;;;;;;;;;;5012896;28;20280;-85
2023/01/02 02:41:31;;;;;;;2.67;2.37;;;;;;;;;;5024612;28;20341;-85
2023/01/02 02:44:03;;;;;;;4.37;2.13;;;;;;;;;;5032812;28;20234;-85
2023/01/02 02:46:35;;;;;;;5.53;2.13;;;;;;;;;;5032385;28;20238;-85
2023/01/02 02:49:07;;;;;;;2.33;2.13;;;;;;;;;;5032542;28;20202;-85
2023/01/02 02:51:36;;;;;;;3.53;2.40;;;;;;;;;;5018962;28;20665;-85
2023/01/02 02:54:06;;;;;;;4.50;2.30;;;;;;;;;;5012710;28;20763;-85
2023/01/02 02:56:34;;;;;;;4.17;2.90;;;;;;;;;;5012221;28;20366;-85
2023/01/02 02:59:01;;;;;;;3.87;2.10;;;;;;;;;;5017771;28;20213;-85
2023/01/02 03:01:29;;;;;;;2.23;2.00;;;;;;;;;;5032081;28;20226;-85
2023/01/02 03:03:57;;;;;;;3.13;2.20;;;;;;;;;;5032423;28;20238;-85
2023/01/02 03:06:39;;;;;;;7.07;2.43;;;;;;;;;;5031973;28;20615;-85
2023/01/02 03:09:12;;;;;;;6.03;2.13;;;;;;;;;;5031701;28;20252;-85
2023/01/02 03:11:45;;;;;;;4.63;2.20;;;;;;;;;;5032137;28;20230;-85
2023/01/02 03:14:18;;;;;;;6.47;2.00;;;;;;;;;;5032589;28;20231;-85
2023/01/02 03:16:47;;;;;;;5.73;2.20;;;;;;;;;;5031314;28;20234;-85
2023/01/02 03:19:18;;;;;;;3.23;2.20;;;;;;;;;;5031630;28;20229;-86
2023/01/02 03:21:49;;;;;;;6.30;2.67;;;;;;;;;;5031909;28;20288;-85
2023/01/02 03:24:19;;;;;;;4.20;2.20;;;;;;;;;;5031839;28;20698;-86
2023/01/02 03:26:48;;;;;;;3.83;2.30;;;;;;;;;;5014682;28;20242;-86
2023/01/02 03:29:17;;;;;;;5.13;2.50;;;;;;;;;;5012286;28;20207;-85
2023/01/02 03:31:46;;;;;;;2.63;2.07;;;;;;;;;;5012002;28;20288;-85
2023/01/02 03:34:15;;;;;;;3.43;2.30;;;;;;;;;;5012616;28;20220;-85
2023/01/02 03:36:46;;;;;;;4.67;2.87;;;;;;;;;;5012459;28;20285;-85
2023/01/02 03:39:15;;;;;;;5.23;2.00;;;;;;;;;;5011932;28;20196;-85
2023/01/02 03:41:44;;;;;;;5.83;2.43;;;;;;;;;;5011957;28;20708;-85
2023/01/02 03:44:12;;;;;;;8.40;2.20;;;;;;;;;;5041128;23;20263;-81
2023/01/02 03:46:45;;;;;;;6.53;2.83;;;;;;;;;;5050369;28;20283;-80
2023/01/02 03:49:14;;;;;;;5.43;2.23;;;;;;;;;;5031726;28;20716;-80
2023/01/02 03:51:41;;;;;;;5.47;2.70;;;;;;;;;;5031292;28;20308;-80
2023/01/02 03:54:10;;;;;;;6.20;2.80;;;;;;;;;;5031600;28;20219;-79
2023/01/02 03:56:42;;;;;;;5.10;2.70;;;;;;;;;;5046384;28;20239;-80
2023/01/02 03:59:13;;;;;;;3.00;2.47;;;;;;;;;;5051399;28;20260;-80
2023/01/02 04:01:47;;;;;;;3.93;2.20;;;;;;;;;;5050947;28;20279;-80
2023/01/02 04:04:17;;;;;;;4.30;2.40;;;;;;;;;;5050457;28;20226;-80
2023/01/02 04:06:47;;;;;;;7.07;2.70;;;;;;;;;;5051208;28;20238;-80
2023/01/02 04:09:18;;;;;;;7.67;2.80;;;;;;;;;;5051075;28;20627;-80
2023/01/02 04:11:47;;;;;;;4.17;2.40;;;;;;;;;;5051046;28;20221;-80
2023/01/02 04:14:17;;;;;;;4.03;2.57;;;;;;;;;;5051487;28;20225;-80
2023/01/02 04:16:46;;;;;;;2.53;2.20;;;;;;;;;;5050991;28;20240;-80
2023/01/02 04:19:14;;;;;;;3.77;1.70;;;;;;;;;;5051112;28;20264;-80
2023/01/02 04:21:42;;;;;;;5.20;2.40;;;;;;;;;;5050489;28;20241;-80
2023/01/02 04:24:11;;;;;;;2.27;1.90;;;;;;;;;;5051306;28;20234;-80
2023/01/02 04:26:41;;;;;;;5.20;3.10;;;;;;;;;;5050965;28;20256;-80
2023/01/02 04:29:08;;;;;;;4.43;2.30;;;;;;;;;;5051121;28;20682;-80
2023/01/02 04:31:37;;;;;;;5.30;2.00;;;;;;;;;;5050443;28;20272;-80
2023/01/02 04:34:05;;;;;;;4.50;2.00;;;;;;;;;;5051425;28;20699;-80
2023/01/02 04:36:37;;;;;;;2.63;2.10;;;;;;;;;;5050609;28;20238;-80
2023/01/02 04:39:04;;;;;;;4.03;2.20;;;;;;;;;;5054463;28;20206;-80
2023/01/02 04:41:32;;;;;;;3.13;2.00;;;;;;;;;;5054377;28;20249;-80
2023/01/02 04:44:01;;;;;;;4.77;2.10;;;;;;;;;;5054919;28;20226;-80
2023/01/02 04:46:29;;;;;;;2.43;2.27;;;;;;;;;;5054466;28;20311;-80
2023/01/02 04:48:56;;;;;;;1.97;1.83;;;;;;;;;;5054669;28;20228;-80
2023/01/02 04:51:23;;;;;;;4.70;2.13;;;;;;;;;;5054115;28;20241;-80
2023/01/02 04:53:50;;;;;;;2.33;2.00;;;;;;;;;;5054849;28;20610;-80
2023/01/02 04:56:18;;;;;;;8.20;2.37;;;;;;;;;;5054136;28;20234;-80
2023/01/02 04:58:45;;;;;;;3.93;2.47;;;;;;;;;;5054463;28;20210;-80
2023/01/02 05:01:15;;;;;;;4.13;1.90;;;;;;;;;;5054229;28;20260;-80
2023/01/02 05:03:42;;;;;;;4.37;2.33;;;;;;;;;;5054344;28;20226;-80
2023/01/02 05:06:09;;;;;;;3.33;2.13;;;;;;;;;;5054217;28;20304;-80
2023/01/02 05:08:37;;;;;;;4.47;1.87;;;;;;;;;;5054293;28;20214;-80
2023/01/02 05:11:07;;;;;;;2.10;1.90;;;;;;;;;;5054149;28;20585;-80
2023/01/02 05:13:34;;;;;;;3.03;2.10;;;;;;;;;;5054352;28;20648;-80
2023/01/02 05:16:02;;;;;;;4.37;2.23;;;;;;;;;;5054009;28;20279;-80
2023/01/02 05:18:31;;;;;;;4.07;2.23;;;;;;;;;;5054069;28;20206;-80
2023/01/02 05:21:02;;;;;;;2.87;2.10;;;;;;;;;;5054057;28;20229;-80
2023/01/02 05:26:13;;;;;;;6.47;2.00;;;;;;;;;;5053862;28;20614;-80
2023/01/02 05:28:40;;;;;;;3.47;2.23;;;;;;;;;;5054080;28;20209;-80
2023/01/02 05:31:07;;;;;;;3.10;2.73;;;;;;;;;;5053828;28;20242;-80
2023/01/02 05:33:36;;;;;;;3.83;3.50;;;;;;;;;;5053738;28;20202;-80
2023/01/02 05:36:05;;;;;;;7.73;3.10;;;;;;;;;;5053545;28;20241;-80
2023/01/02 05:38:32;;;;;;;4.10;1.87;;;;;;;;;;5053678;28;20296;-80
2023/01/02 05:41:00;;;;;;;1.87;1.70;;;;;;;;;;5053607;28;20607;-80
2023/01/02 05:43:27;;;;;;;1.90;1.73;;;;;;;;;;5053076;28;20209;-80
2023/01/02 05:45:54;;;;;;;4.83;2.13;;;;;;;;;;5053334;28;20237;-80
2023/01/02 05:48:21;;;;;;;4.73;2.37;;;;;;;;;;5052687;28;20259;-80
2023/01/02 05:50:49;;;;;;;4.73;2.10;;;;;;;;;;5052877;28;20226;-80
2023/01/02 05:53:17;;;;;;;4.17;2.13;;;;;;;;;;5053526;28;20213;-80
2023/01/02 05:55:44;;;;;;;3.90;2.80;;;;;;;;;;5053159;28;20320;-80
2023/01/02 05:58:11;;;;;;;2.47;1.80;;;;;;;;;;5053448;28;20210;-80
2023/01/02 06:00:38;;;;;;;4.87;2.30;;;;;;;;;;5053146;28;20604;-80
2023/01/02 06:03:05;;;;;;;2.53;2.03;;;;;;;;;;5053414;28;20203;-80
2023/01/02 06:05:32;;;;;;;2.50;2.30;;;;;;;;;;5052812;28;20245;-80
2023/01/02 06:08:00;;;;;;;3.07;2.00;;;;;;;;;;5053268;28;20206;-80
2023/01/02 06:10:27;;;;;;;3.03;2.20;;;;;;;;;;5052834;28;20284;-80
2023/01/02 06:12:54;;;;;;;3.03;2.20;;;;;;;;;;5052889;28;20252;-80
2023/01/02 06:15:21;;;;;;;4.53;2.60;;;;;;;;;;5052963;28;20222;-81
2023/01/02 06:17:48;;;;;;;5.93;2.57;;;;;;;;;;5053335;28;20264;-81
2023/01/02 06:20:15;;;;;;;8.30;2.40;;;;;;;;;;5052595;28;20216;-81
2023/01/02 06:22:42;;;;;;;6.23;2.10;;;;;;;;;;5052411;28;20210;-81
2023/01/02 06:25:11;;;;;;;4.87;1.90;;;;;;;;;;5052426;28;20238;-81
2023/01/02 06:27:38;;;;;;;3.80;2.13;;;;;;;;;;5052881;28;20213;-82
2023/01/02 06:30:05;;;;;;;3.57;2.27;;;;;;;;;;5052218;28;20653;-82
2023/01/02 06:32:32;;;;;;;5.20;2.43;;;;;;;;;;5052999;28;20248;-82
2023/01/02 06:34:59;;;;;;;6.83;2.30;;;;;;;;;;5053015;28;20229;-82
2023/01/02 06:37:26;;;;;;;3.27;2.00;;;;;;;;;;5052427;28;20233;-82
2023/01/02 06:39:53;;;;;;;6.43;2.60;;;;;;;;;;5052346;28;20202;-81
2023/01/02 06:42:22;;;;;;;4.17;2.17;;;;;;;;;;5052167;28;20237;-81
2023/01/02 06:44:49;;;;;;;6.03;2.50;;;;;;;;;;5052537;28;20287;-81
2023/01/02 06:47:16;;;;;;;3.37;2.13;;;;;;;;;;5052048;28;20288;-81
2023/01/02 06:49:43;;;;;;;6.80;2.47;;;;;;;;;;5052540;28;20206;-81
2023/01/02 06:52:10;;;;;;;2.80;2.33;;;;;;;;;;5052143;28;20245;-81
2023/01/02 06:54:37;;;;;;;5.47;2.17;;;;;;;;;;5052422;28;20233;-81
2023/01/02 06:57:04;;;;;;;4.03;2.50;;;;;;;;;;5052170;28;20307;-81
2023/01/02 06:59:32;;;;;;;5.63;2.30;;;;;;;;;;5051752;28;20213;-82
2023/01/02 07:01:59;;;;;;;5.30;2.50;;;;;;;;;;5051948;28;20283;-82
2023/01/02 07:04:26;;;;;;;6.20;2.20;;;;;;;;;;5051966;28;20234;-81
2023/01/02 07:06:53;;;;;;;4.63;2.20;;;;;;;;;;5052007;28;20287;-81
2023/01/02 07:09:20;;;;;;;6.93;2.70;;;;;;;;;;5051955;28;20206;-81
2023/01/02 07:11:47;;;;;;;8.03;2.30;;;;;;;;;;5051525;28;20237;-82
2023/01/02 07:14:14;;;;;;;5.10;3.10;;;;;;;;;;5052099;28;20309;-81
2023/01/02 07:16:43;;;;;;;8.07;4.43;;;;;;;;;;5051617;28;20363;-82
2023/01/02 07:19:10;;;;;;;4.70;2.73;;;;;;;;;;5051856;28;20229;-82
2023/01/02 07:21:37;;;;;;;5.13;3.07;;;;;;;;;;5051181;28;20662;-82
2023/01/02 07:24:04;;;;;;;2.93;1.93;;;;;;;;;;5051914;28;20210;-82
2023/01/02 07:26:31;;;;;;;3.33;2.20;;;;;;;;;;5051477;28;20244;-82
2023/01/02 07:28:58;;;;;;;3.53;2.70;;;;;;;;;;5051721;28;20264;-82
2023/01/02 07:31:28;;;;;;;9.90;2.93;;;;;;;;;;5051368;28;20603;-81
2023/01/02 07:33:56;;;;;;;6.23;3.30;;;;;;;;;;5051696;28;20228;-81
2023/01/02 07:36:23;;;;;;;8.87;3.20;;;;;;;;;;5051250;28;20230;-81
2023/01/02 07:38:51;;;;;;;3.37;2.43;;;;;;;;;;5051594;28;20280;-82
2023/01/02 07:41:18;;;;;;;8.20;2.93;;;;;;;;;;5051168;28;20653;-82
2023/01/02 07:43:46;;;;;;;4.33;2.53;;;;;;;;;;5051896;28;20205;-82
2023/01/02 07:46:14;;;;;;;4.67;2.40;;;;;;;;;;5050798;28;20237;-82
2023/01/02 07:48:41;;;;;;;4.77;2.53;;;;;;;;;;5051271;28;20260;-82
2023/01/02 07:51:09;;;;;;;5.80;2.50;;;;;;;;;;5050988;28;20236;-82
2023/01/02 07:53:37;;;;;;;5.63;2.40;;;;;;;;;;5047924;28;20210;-82
2023/01/02 07:56:04;;;;;;;3.73;2.27;;;;;;;;;;5044900;28;20836;-82
2023/01/02 07:58:31;;;;;;;8.83;3.13;;;;;;;;;;5050628;28;20221;-82
2023/01/02 08:00:59;;;;;;;7.33;2.90;;;;;;;;;;5031290;28;20230;-82
2023/01/02 08:03:26;;;;;;;8.63;2.80;;;;;;;;;;5031539;28;20207;-82
2023/01/02 08:05:55;;;;;;;4.77;2.57;;;;;;;;;;5031093;28;20234;-82
2023/01/02 08:08:23;;;;;;;4.83;2.20;;;;;;;;;;5031201;28;20207;-82
2023/01/02 08:10:51;;;;;;;4.90;2.27;;;;;;;;;;5031134;28;20230;-82
2023/01/02 08:13:18;;;;;;;6.53;3.20;;;;;;;;;;5033983;28;20207;-82
2023/01/02 08:15:45;;;;;;;4.47;2.67;;;;;;;;;;5035018;28;20237;-82
2023/01/02 08:18:12;;;;;;;6.20;2.63;;;;;;;;;;5053529;28;20297;-82
2023/01/02 08:20:39;;;;;;;5.30;2.33;;;;;;;;;;5054814;28;20234;-82
2023/01/02 08:23:06;;;;;;;7.00;2.50;;;;;;;;;;5055319;28;20202;-82
2023/01/02 08:25:34;;;;;;;6.10;2.37;;;;;;;;;;5054635;28;20240;-82
2023/01/02 08:28:02;;;;;;;6.80;2.73;;;;;;;;;;5055035;28;20210;-82
2023/01/02 08:30:29;;;;;;;9.90;2.50;;;;;;;;;;5040352;28;20230;-82
2023/01/02 08:32:56;;;;;;;8.87;2.40;;;;;;;;;;5055257;28;20202;-81
2023/01/02 08:35:23;;;;;;;6.43;2.43;;;;;;;;;;5053248;28;20296;-80
2023/01/02 08:37:50;;;;;;;7.50;2.33;;;;;;;;;;5048963;28;20206;-80
2023/01/02 08:40:17;;;;;;;5.33;2.30;;;;;;;;;;5034691;28;20207;-80
2023/01/02 08:42:45;;;;;;;6.23;2.40;;;;;;;;;;5032774;28;20618;-82
2023/01/02 08:45:12;;;;;;;4.73;2.47;;;;;;;;;;5046706;28;20233;-82
2023/01/02 08:47:39;;;;;;;7.43;2.90;;;;;;;;;;5037636;28;20916;-82
2023/01/02 08:50:07;;;;;;;7.90;2.70;;;;;;;;;;5046822;28;20724;-82
2023/01/02 08:52:34;;;;;;;7.33;2.63;;;;;;;;;;5053790;28;20217;-82
2023/01/02 08:55:02;;;;;;;8.30;2.57;;;;;;;;;;5052551;28;20226;-82
2023/01/02 08:57:30;;;;;;;9.43;2.43;;;;;;;;;;5053355;28;20226;-82
2023/01/02 08:59:58;;;;;;;7.10;2.97;;;;;;;;;;5052992;28;20206;-82
2023/01/02 09:02:25;;;;;;;5.57;2.83;;;;;;;;;;5038062;28;20241;-82
2023/01/02 09:04:52;;;;;;;8.50;2.67;;;;;;;;;;5033528;28;20234;-82
2023/01/02 09:07:19;;;;;;;8.03;2.60;;;;;;;;;;5032894;28;20234;-82
2023/01/02 09:09:46;;;;;;;10.73;2.80;;;;;;;;;;5032760;28;20671;-81
2023/01/02 09:12:13;;;;;;;11.07;3.53;;;;;;;;;;5033344;28;20231;-81
2023/01/02 09:14:41;;;;;;;8.10;2.57;;;;;;;;;;5033676;28;20304;-81
2023/01/02 09:17:09;;;;;;;4.07;2.40;;;;;;;;;;5032830;28;20292;-81
2023/01/02 09:19:36;;;;;;;8.97;2.50;;;;;;;;;;5032572;28;20918;-82
2023/01/02 09:22:04;;;;;;;6.67;2.17;;;;;;;;;;5032979;28;20231;-82
2023/01/02 09:24:31;;;;;;;8.43;2.50;;;;;;;;;;5033112;28;20223;-82
2023/01/02 09:26:58;;;;;;;3.20;1.87;;;;;;;;;;5033689;28;20231;-82
2023/01/02 09:29:25;;;;;;;2.97;2.40;;;;;;;;;;5032809;28;20210;-82
2023/01/02 09:31:52;;;;;;;9.03;2.63;;;;;;;;;;5032967;28;20245;-82
2023/01/02 09:34:21;;;;;;;8.40;2.83;;;;;;;;;;5033191;28;20269;-82
2023/01/02 09:36:48;;;;;;;7.27;2.63;;;;;;;;;;5033096;28;20234;-82
2023/01/02 09:39:15;;;;;;;9.20;2.33;;;;;;;;;;5049717;28;20198;-82
2023/01/02 09:41:42;;;;;;;7.10;2.53;;;;;;;;;;5052460;28;20582;-82
2023/01/02 09:44:14;;;;;;;8.17;2.90;;;;;;;;;;5052788;28;20656;-82
2023/01/02 09:46:44;;;;;;;7.37;2.67;;;;;;;;;;5052135;28;20246;-82
2023/01/02 09:49:13;;;;;;;5.87;2.53;;;;;;;;;;5052118;28;20618;-82
2023/01/02 09:51:41;;;;;;;10.47;2.63;;;;;;;;;;5051473;28;20241;-82
2023/01/02 09:54:14;;;;;;;8.57;2.73;;;;;;;;;;5052014;28;20226;-82
2023/01/02 09:56:44;;;;;;;8.77;2.40;;;;;;;;;;5052216;28;20283;-82
2023/01/02 09:59:14;;;;;;;7.30;2.73;;;;;;;;;;5052032;28;20202;-82
2023/01/02 10:01:49;;;;;;;8.13;2.60;;;;;;;;;;5050408;28;20665;-81
2023/01/02 10:04:18;;;;;;;2.80;1.90;;;;;;;;;;5032365;28;20222;-81
2023/01/02 10:06:48;;;;;;;11.73;2.67;;;;;;;;;;5032131;28;20242;-81
2023/01/02 10:09:19;;;;;;;5.23;2.37;;;;;;;;;;5031380;28;20662;-82
2023/01/02 10:11:50;;;;;;;4.37;2.23;;;;;;;;;;5031900;28;20304;-81
2023/01/02 10:14:21;;;;;;;7.33;2.87;;;;;;;;;;5032148;28;20226;-81
2023/01/02 10:16:50;;;;;;;8.33;2.80;;;;;;;;;;5046769;23;20233;-81
2023/01/02 10:19:19;;;;;;;7.50;2.67;;;;;;;;;;5024283;28;20206;-81
2023/01/02 10:21:51;;;;;;;4.67;2.40;;;;;;;;;;5032101;28;20616;-81
2023/01/02 10:24:20;;;;;;;4.83;2.17;;;;;;;;;;5023004;28;20210;-82
2023/01/02 10:26:50;;;;;;;6.53;2.03;;;;;;;;;;5012959;28;20283;-84
2023/01/02 10:29:19;;;;;;;3.00;1.63;;;;;;;;;;5013368;28;20265;-85
2023/01/02 10:31:49;;;;;;;7.23;2.47;;;;;;;;;;5016286;28;20234;-81
2023/01/02 10:34:17;;;;;;;4.60;2.20;;;;;;;;;;5032092;28;20207;-83
2023/01/02 10:36:46;;;;;;;5.40;1.80;;;;;;;;;;5021239;28;20800;-83
2023/01/02 10:39:17;;;;;;;5.17;2.80;;;;;;;;;;5019022;28;20194;-82
2023/01/02 10:41:48;;;;;;;5.83;2.67;;;;;;;;;;5032084;28;20292;-83
2023/01/02 10:44:26;;;;;;;5.30;2.60;;;;;;;;;;5032774;28;20191;-83
2023/01/02 10:46:53;;;;;;;8.90;2.37;;;;;;;;;;5031681;28;20246;-83
2023/01/02 10:49:21;;;;;;;5.50;2.77;;;;;;;;;;5032110;28;20210;-80
2023/01/02 10:51:51;;;;;;;3.90;1.80;;;;;;;;;;5032488;28;20235;-85
2023/01/02 10:54:19;;;;;;;6.77;2.40;;;;;;;;;;5033163;28;20211;-85
2023/01/02 10:56:48;;;;;;;5.27;2.30;;;;;;;;;;5042411;28;20245;-85
2023/01/02 10:59:19;;;;;;;6.80;2.73;;;;;;;;;;5039815;28;20546;-86
2023/01/02 11:01:49;;;;;;;11.77;2.20;;;;;;;;;;5038547;28;20257;-86
2023/01/02 11:04:20;;;;;;;4.07;1.97;;;;;;;;;;5036542;28;20252;-85
2023/01/02 11:06:52;;;;;;;8.53;3.43;;;;;;;;;;5035031;28;20243;-83
2023/01/02 11:09:22;;;;;;;7.83;2.60;;;;;;;;;;5048348;28;20211;-83
2023/01/02 11:11:50;;;;;;;3.30;2.10;;;;;;;;;;5038152;28;20306;-84
2023/01/02 11:14:17;;;;;;;5.00;2.57;;;;;;;;;;5033914;28;20195;-84
2023/01/02 11:16:44;;;;;;;4.20;2.97;;;;;;;;;;5033448;28;20589;-82
2023/01/02 11:19:18;;;;;;;5.83;2.20;;;;;;;;;;5032664;28;20264;-83
2023/01/02 11:21:45;;;;;;;5.23;2.40;;;;;;;;;;5031879;28;20249;-83
2023/01/02 11:24:15;;;;;;;7.23;3.10;;;;;;;;;;5033595;28;20624;-85
2023/01/02 11:26:44;;;;;;;7.90;2.40;;;;;;;;;;5033257;28;20733;-85
2023/01/02 11:29:15;;;;;;;4.40;2.30;;;;;;;;;;5032356;28;20203;-82
2023/01/02 11:31:43;;;;;;;5.70;2.30;;;;;;;;;;5031283;28;20242;-82
2023/01/02 11:34:18;;;;;;;4.40;2.40;;;;;;;;;;5032464;28;20190;-82
2023/01/02 11:36:45;;;;;;;7.37;2.50;;;;;;;;;;5012558;28;20242;-82
2023/01/02 11:39:21;;;;;;;5.80;3.03;;;;;;;;;;5027663;28;20217;-82
2023/01/02 11:44:50;;;;;;;8.40;3.50;;;;;;;;;;5006197;28;20764;-82
2023/01/02 11:47:18;;;;;;;4.43;2.40;;;;;;;;;;5029586;28;20244;-82
2023/01/02 11:49:47;;;;;;;7.13;2.50;;;;;;;;;;5031283;28;20213;-82
2023/01/02 11:52:17;;;;;;;6.33;2.20;;;;;;;;;;5031617;28;20325;-82
2023/01/02 11:54:47;;;;;;;6.17;2.67;;;;;;;;;;5031350;28;20198;-81
2023/01/02 11:57:19;;;;;;;5.93;2.40;;;;;;;;;;5030512;28;20230;-82
2023/01/02 11:59:49;;;;;;;8.53;2.73;;;;;;;;;;5030583;28;20199;-83
2023/01/02 12:02:18;;;;;;;5.30;2.40;;;;;;;;;;5030654;28;20238;-84
2023/01/02 12:04:45;;;;;;;5.73;2.37;;;;;;;;;;5031146;28;20272;-83
2023/01/02 12:07:23;;;;;;;4.97;2.47;;;;;;;;;;5029748;28;20754;-83
2023/01/02 12:09:54;;;;;;;9.73;3.27;;;;;;;;;;5016182;28;20340;-84
2023/01/02 12:12:32;;;;;;;6.80;2.27;;;;;;;;;;5029773;28;20239;-82
2023/01/02 12:15:10;;;;;;;4.77;2.27;;;;;;;;;;5030904;28;20226;-82
2023/01/02 12:17:43;;;;;;;7.67;2.97;;;;;;;;;;5030177;28;20634;-82
2023/01/02 12:20:17;;;;;;;4.90;2.83;;;;;;;;;;5030041;28;20286;-82
2023/01/02 12:22:57;;;;;;;6.27;2.47;;;;;;;;;;5030926;28;20195;-82
2023/01/02 12:25:29;;;;;;;5.00;2.73;;;;;;;;;;5030002;28;20751;-83
2023/01/02 12:28:01;;;;;;;7.23;3.03;;;;;;;;;;5030962;28;20219;-84
2023/01/02 12:30:30;;;;;;;7.73;2.83;;;;;;;;;;5029625;28;20234;-83
2023/01/02 12:33:06;;;;;;;6.23;3.00;;;;;;;;;;5030727;28;20206;-83
2023/01/02 12:35:41;;;;;;;5.07;2.50;;;;;;;;;;5030101;28;20234;-84
2023/01/02 12:38:08;;;;;;;6.87;2.50;;;;;;;;;;5029947;28;20213;-83
2023/01/02 12:40:50;;;;;;;6.87;2.53;;;;;;;;;;5029955;28;20234;-84
2023/01/02 12:43:29;;;;;;;3.57;2.20;;;;;;;;;;5030349;28;20211;-83
2023/01/02 12:46:03;;;;;;;7.13;2.50;;;;;;;;;;5029977;28;20230;-83
2023/01/02 12:48:41;;;;;;;6.33;3.03;;;;;;;;;;5022646;28;20727;-83
2023/01/02 12:51:16;;;;;;;6.70;2.67;;;;;;;;;;5049761;28;20257;-83
2023/01/02 12:53:57;;;;;;;4.50;2.60;;;;;;;;;;5050306;28;20630;-83
2023/01/02 12:56:31;;;;;;;6.53;3.60;;;;;;;;;;5030072;28;20318;-83
2023/01/02 12:59:11;;;;;;;9.03;3.80;;;;;;;;;;5031620;28;20198;-83
2023/01/02 13:01:42;;;;;;;6.87;3.53;;;;;;;;;;5033877;28;20230;-83
2023/01/02 13:04:14;;;;;;;6.17;2.93;;;;;;;;;;5038894;28;20213;-84
2023/01/02 13:06:47;;;;;;;2.30;2.17;;;;;;;;;;5044036;28;20706;-83
2023/01/02 13:09:19;;;;;;;8.73;2.60;;;;;;;;;;5033600;28;20209;-83
2023/01/02 13:11:49;;;;;;;5.70;3.50;;;;;;;;;;5033370;28;20242;-83
2023/01/02 13:14:19;;;;;;;5.50;2.73;;;;;;;;;;5016157;28;20211;-83
2023/01/02 13:16:51;;;;;;;5.83;2.67;;;;;;;;;;5013406;28;20242;-82
2023/01/02 13:19:22;;;;;;;4.40;2.50;;;;;;;;;;5013438;28;20196;-84
2023/01/02 13:21:52;;;;;;;6.17;3.43;;;;;;;;;;5013657;28;20243;-83
2023/01/02 13:24:22;;;;;;;5.77;2.87;;;;;;;;;;5023924;28;20202;-83
2023/01/02 13:26:49;;;;;;;4.40;2.90;;;;;;;;;;5032511;28;20245;-83
2023/01/02 13:29:22;;;;;;;5.90;3.30;;;;;;;;;;5033205;28;20260;-85
2023/01/02 13:31:49;;;;;;;4.27;2.47;;;;;;;;;;5033470;28;20234;-84
2023/01/02 13:34:21;;;;;;;4.80;2.80;;;;;;;;;;5033544;28;20217;-85
2023/01/02 13:36:48;;;;;;;5.53;2.83;;;;;;;;;;5033250;28;20736;-85
2023/01/02 13:39:18;;;;;;;6.47;2.93;;;;;;;;;;5034018;28;20198;-85
2023/01/02 13:44:33;;;;;;;5.30;2.87;;;;;;;;;;5033306;28;20284;-85
2023/01/02 13:47:07;;;;;;;4.50;2.87;;;;;;;;;;5033356;28;20289;-84
2023/01/02 13:49:35;;;;;;;4.70;3.07;;;;;;;;;;5034072;28;20194;-85
2023/01/02 13:52:02;;;;;;;3.63;3.17;;;;;;;;;;5033248;28;20241;-84
2023/01/02 13:54:35;;;;;;;6.40;2.83;;;;;;;;;;5033860;28;20851;-86
2023/01/02 13:57:16;;;;;;;9.27;3.43;;;;;;;;;;5033331;28;20289;-83
2023/01/02 13:59:52;;;;;;;4.97;2.43;;;;;;;;;;5033752;28;20207;-85
2023/01/02 14:02:21;;;;;;;4.70;2.93;;;;;;;;;;5033146;28;20321;-82
2023/01/02 14:04:48;;;;;;;9.27;2.60;;;;;;;;;;5033874;28;20583;-82
2023/01/02 14:07:39;;;;;;;5.00;3.23;;;;;;;;;;5032891;28;20239;-82
2023/01/02 14:10:24;;;;;;;6.93;2.33;;;;;;;;;;5032393;28;20223;-81
2023/01/02 14:12:53;;;;;;;5.63;2.90;;;;;;;;;;5033639;28;20655;-82
2023/01/02 14:15:23;;;;;;;4.27;2.30;;;;;;;;;;5032798;28;20698;-81
2023/01/02 14:17:53;;;;;;;7.70;3.50;;;;;;;;;;5032629;28;20235;-82
2023/01/02 14:20:22;;;;;;;4.93;2.63;;;;;;;;;;5032690;28;20222;-81
2023/01/02 14:22:51;;;;;;;5.03;2.20;;;;;;;;;;5033531;28;20218;-81
2023/01/02 14:25:18;;;;;;;3.33;2.17;;;;;;;;;;5032832;28;20191;-81
2023/01/02 14:27:49;;;;;;;5.80;3.20;;;;;;;;;;5033161;28;20242;-82
2023/01/02 14:30:21;;;;;;;5.90;2.97;;;;;;;;;;5032960;28;20197;-81
2023/01/02 14:32:51;;;;;;;8.20;3.03;;;;;;;;;;5033466;28;20191;-82
2023/01/02 14:35:26;;;;;;;4.10;2.70;;;;;;;;;;5032414;28;20253;-81
2023/01/02 14:37:54;;;;;;;2.83;2.57;;;;;;;;;;5032744;28;20713;-81
2023/01/02 14:40:34;;;;;;;4.73;3.17;;;;;;;;;;5032444;28;20211;-82
2023/01/02 14:45:49;;;;;;;5.97;3.10;;;;;;;;;;5031140;28;20308;-85
2023/01/02 14:48:18;;;;;;;3.33;2.50;;;;;;;;;;5032364;28;20271;-84
2023/01/02 14:50:46;;;;;;;5.50;2.87;;;;;;;;;;5032580;28;20740;-83
2023/01/02 14:53:17;;;;;;;6.90;2.80;;;;;;;;;;5032701;28;20210;-83
2023/01/02 14:55:46;;;;;;;7.80;2.90;;;;;;;;;;5032367;28;20234;-86
2023/01/02 14:58:17;;;;;;;5.17;3.00;;;;;;;;;;5032700;28;20568;-83
2023/01/02 15:00:46;;;;;;;5.07;3.50;;;;;;;;;;5032375;28;20258;-83
2023/01/02 15:03:17;;;;;;;5.77;2.70;;;;;;;;;;5033085;28;20214;-85
2023/01/02 15:05:48;;;;;;;4.40;3.47;;;;;;;;;;5032144;28;20262;-87
2023/01/02 15:08:16;;;;;;;4.20;3.73;;;;;;;;;;5032877;28;20230;-87